createdAt,value
2018-11-26T00:08:31.763Z,96711.20
2018-11-26T00:11:06.334Z,96715.41
2018-11-26T00:13:34.772Z,96711.72
2018-11-26T00:16:03.212Z,96707.55
2018-11-26T00:18:31.450Z,96710.42
2018-11-26T00:21:00.029Z,96706.89
2018-11-26T00:23:28.384Z,96715.50
2018-11-26T00:25:57.311Z,96704.04
2018-11-26T00:28:25.746Z,96705.90
2018-11-26T00:30:54.246Z,96709.95
2018-11-26T00:33:22.743Z,96701.19
2018-11-26T00:35:52.132Z,96699.84
2018-11-26T00:38:20.800Z,96698.37
2018-11-26T00:40:49.579Z,96693.80
2018-11-26T00:43:18.340Z,96692.81
2018-11-26T00:45:47.238Z,96690.63
2018-11-26T00:48:15.836Z,96687.92
2018-11-26T00:50:44.264Z,96684.89
2018-11-26T00:53:12.924Z,96688.28
2018-11-26T00:55:41.408Z,96682.05
2018-11-26T00:58:10.639Z,96687.45
2018-11-26T01:00:39.003Z,96683.61
2018-11-26T01:03:07.491Z,96686.31
2018-11-26T01:05:37.336Z,96681.42
2018-11-26T01:08:05.743Z,96679.73
2018-11-26T01:10:34.646Z,96676.20
2018-11-26T01:13:03.457Z,96675.87
2018-11-26T01:15:32.083Z,96678.42
2018-11-26T01:18:00.961Z,96680.61
2018-11-26T01:20:29.288Z,96681.62
2018-11-26T01:22:57.749Z,96680.80
2018-11-26T01:25:26.615Z,96675.06
2018-11-26T01:27:55.144Z,96674.55
2018-11-26T01:30:23.884Z,96681.30
2018-11-26T01:32:53.079Z,96682.14
2018-11-26T01:35:21.456Z,96686.70
2018-11-26T01:37:49.907Z,96681.19
2018-11-26T01:40:19.716Z,96679.50
2018-11-26T01:42:47.996Z,96681.36
2018-11-26T01:45:16.299Z,96684.39
2018-11-26T01:47:45.291Z,96678.99
2018-11-26T01:50:13.636Z,96684.91
2018-11-26T01:52:41.925Z,96681.03
2018-11-26T01:55:10.726Z,96682.56
2018-11-26T01:57:39.671Z,96684.24
2018-11-26T02:00:13.264Z,96685.09
2018-11-26T02:02:42.055Z,96679.86
2018-11-26T02:05:11.090Z,96680.70
2018-11-26T02:07:39.475Z,96682.89
2018-11-26T02:10:12.468Z,96684.75
2018-11-26T02:12:40.953Z,96681.22
2018-11-26T02:15:13.844Z,96688.30
2018-11-26T02:17:42.211Z,96686.61
2018-11-26T02:20:10.870Z,96692.52
2018-11-26T02:22:39.247Z,96695.55
2018-11-26T02:25:08.224Z,96690.66
2018-11-26T02:27:37.234Z,96689.31
2018-11-26T02:31:35.447Z,96684.09
2018-11-26T02:34:03.962Z,96681.06
2018-11-26T02:36:32.167Z,96678.87
2018-11-26T02:39:00.532Z,96676.69
2018-11-26T02:41:30.124Z,96682.92
2018-11-26T02:43:58.474Z,96679.09
2018-11-26T02:46:26.693Z,96680.22
2018-11-26T02:48:55.049Z,96676.50
2018-11-26T02:51:23.245Z,96682.92
2018-11-26T02:53:51.602Z,96684.94
2018-11-26T02:56:19.980Z,96681.06
2018-11-26T02:58:48.292Z,96683.77
2018-11-26T03:01:16.758Z,96679.20
2018-11-26T03:03:45.212Z,96680.38
2018-11-26T03:06:13.794Z,96679.89
2018-11-26T03:08:42.143Z,96678.87
2018-11-26T03:11:10.691Z,96677.52
2018-11-26T03:13:39.041Z,96674.82
2018-11-26T03:16:07.477Z,96675.48
2018-11-26T03:18:35.903Z,96674.46
2018-11-26T03:21:04.178Z,96677.16
2018-11-26T03:23:32.551Z,96682.38
2018-11-26T03:26:00.914Z,96673.44
2018-11-26T03:28:29.208Z,96679.69
2018-11-26T03:31:40.512Z,96678.84
2018-11-26T03:34:08.915Z,96676.30
2018-11-26T03:36:37.376Z,96684.24
2018-11-26T03:39:06.949Z,96683.22
2018-11-26T03:41:35.334Z,96687.27
2018-11-26T03:44:03.629Z,96690.81
2018-11-26T03:46:32.877Z,96689.64
2018-11-26T03:49:01.710Z,96698.08
2018-11-26T03:51:30.164Z,96699.94
2018-11-26T03:53:58.703Z,96691.50
2018-11-26T03:56:27.254Z,96690.34
2018-11-26T03:58:56.846Z,96699.28
2018-11-26T04:01:25.342Z,96692.67
2018-11-26T04:03:53.718Z,96694.03
2018-11-26T04:06:22.183Z,96695.38
2018-11-26T04:08:50.853Z,96686.61
2018-11-26T04:11:19.292Z,96696.73
2018-11-26T04:16:27.061Z,96698.08
2018-11-26T04:18:55.276Z,96703.48
2018-11-26T04:21:23.419Z,96697.75
2018-11-26T04:23:51.836Z,96694.72
2018-11-26T04:26:20.069Z,96699.61
2018-11-26T04:28:48.230Z,96697.23
2018-11-26T04:31:16.636Z,96690.66
2018-11-26T04:33:45.485Z,96692.86
2018-11-26T04:36:13.847Z,96693.37
2018-11-26T04:38:42.347Z,96689.64
2018-11-26T04:41:10.712Z,96687.78
2018-11-26T04:43:39.519Z,96687.97
2018-11-26T04:46:07.935Z,96694.72
2018-11-26T04:48:36.207Z,96694.72
2018-11-26T04:51:05.202Z,96692.86
2018-11-26T04:53:33.827Z,96681.72
2018-11-26T04:56:02.591Z,96681.72
2018-11-26T04:58:30.959Z,96676.83
2018-11-26T05:00:59.609Z,96676.50
2018-11-26T05:03:27.958Z,96680.88
2018-11-26T05:05:56.800Z,96677.52
2018-11-26T05:08:25.241Z,96682.08
2018-11-26T05:10:53.616Z,96675.84
2018-11-26T05:13:22.001Z,96676.89
2018-11-26T05:15:50.363Z,96677.91
2018-11-26T05:18:18.807Z,96678.09
2018-11-26T05:20:47.930Z,96678.27
2018-11-26T05:23:16.309Z,96677.25
2018-11-26T05:25:44.672Z,96677.77
2018-11-26T05:28:13.117Z,96671.52
2018-11-26T05:30:41.478Z,96676.59
2018-11-26T05:33:09.688Z,96677.77
2018-11-26T05:35:38.388Z,96680.64
2018-11-26T05:38:06.612Z,96680.38
2018-11-26T05:40:34.876Z,96673.47
2018-11-26T05:43:03.343Z,96675.99
2018-11-26T05:45:31.762Z,96677.67
2018-11-26T05:48:00.175Z,96681.39
2018-11-26T05:50:29.210Z,96677.80
2018-11-26T05:52:57.677Z,96673.74
2018-11-26T05:55:26.120Z,96678.45
2018-11-26T05:57:54.887Z,96671.85
2018-11-26T06:00:32.807Z,96676.56
2018-11-26T06:03:10.223Z,96676.17
2018-11-26T06:05:38.942Z,96680.20
2018-11-26T06:08:07.099Z,96676.47
2018-11-26T06:10:35.268Z,96685.35
2018-11-26T06:13:03.571Z,96680.80
2018-11-26T06:15:31.767Z,96687.52
2018-11-26T06:18:00.813Z,96688.17
2018-11-26T06:20:29.015Z,96684.05
2018-11-26T06:22:57.539Z,96687.23
2018-11-26T06:25:25.820Z,96692.24
2018-11-26T06:27:54.313Z,96691.62
2018-11-26T06:31:50.118Z,96691.70
2018-11-26T06:34:18.499Z,96692.17
2018-11-26T06:36:46.876Z,96692.17
2018-11-26T06:39:24.215Z,96694.99
2018-11-26T06:41:56.608Z,96700.87
2018-11-26T06:44:25.044Z,96699.16
2018-11-26T06:49:24.292Z,96703.84
2018-11-26T06:51:52.496Z,96708.87
2018-11-26T06:54:20.787Z,96714.94
2018-11-26T06:56:49.016Z,96712.68
2018-11-26T06:59:17.308Z,96723.31
2018-11-26T07:01:45.456Z,96720.39
2018-11-26T07:04:13.663Z,96726.41
2018-11-26T07:06:42.263Z,96725.91
2018-11-26T07:09:10.415Z,96727.44
2018-11-26T07:11:39.141Z,96724.37
2018-11-26T07:14:08.043Z,96737.55
2018-11-26T07:16:37.660Z,96735.11
2018-11-26T07:19:05.370Z,96734.75
2018-11-26T07:21:33.547Z,96736.47
2018-11-26T07:24:01.744Z,96741.98
2018-11-26T07:26:30.103Z,96737.38
2018-11-26T07:28:58.322Z,96750.27
2018-11-26T07:31:26.463Z,96749.55
2018-11-26T07:33:55.056Z,96752.58
2018-11-26T07:36:23.276Z,96743.12
2018-11-26T07:38:51.426Z,96747.23
2018-11-26T07:41:19.624Z,96745.56
2018-11-26T07:43:47.815Z,96752.98
2018-11-26T07:46:16.773Z,96754.91
2018-11-26T07:49:04.841Z,96758.13
2018-11-26T07:51:33.754Z,96759.66
2018-11-26T07:54:02.304Z,96760.06
2018-11-26T07:56:31.017Z,96760.66
2018-11-26T07:58:59.370Z,96768.17
2018-11-26T08:01:29.408Z,96766.31
2018-11-26T08:03:57.819Z,96770.67
2018-11-26T08:06:26.476Z,96775.20
2018-11-26T08:08:54.768Z,96780.27
2018-11-26T08:11:22.971Z,96777.72
2018-11-26T08:13:51.371Z,96763.69
2018-11-26T08:16:19.799Z,96771.94
2018-11-26T08:18:48.605Z,96786.48
2018-11-26T08:21:16.759Z,96786.48
2018-11-26T08:23:45.028Z,96786.23
2018-11-26T08:26:13.345Z,96793.69
2018-11-26T08:28:42.177Z,96795.88
2018-11-26T08:31:10.947Z,96795.19
2018-11-26T08:33:39.340Z,96800.23
2018-11-26T08:36:13.534Z,96799.72
2018-11-26T08:38:46.320Z,96801.08
2018-11-26T08:41:15.671Z,96810.98
2018-11-26T08:43:45.618Z,96810.77
2018-11-26T08:46:18.616Z,96808.09
2018-11-26T08:48:53.251Z,96811.27
2018-11-26T08:51:21.658Z,96817.52
2018-11-26T08:53:50.300Z,96814.42
2018-11-26T08:56:18.739Z,96816.58
2018-11-26T08:58:48.190Z,96821.84
2018-11-26T09:01:17.595Z,96825.20
2018-11-26T09:03:49.260Z,96825.53
2018-11-26T09:06:18.101Z,96827.22
2018-11-26T09:08:46.519Z,96831.05
2018-11-26T09:11:14.796Z,96831.05
2018-11-26T09:13:42.966Z,96835.08
2018-11-26T09:16:11.325Z,96835.59
2018-11-26T09:18:39.972Z,96835.73
2018-11-26T09:21:11.183Z,96840.96
2018-11-26T09:27:42.841Z,96853.39
2018-11-26T09:30:12.691Z,96849.52
2018-11-26T09:32:41.136Z,96853.77
2018-11-26T09:35:10.639Z,96854.75
2018-11-26T09:37:39.017Z,96859.06
2018-11-26T09:40:08.055Z,96858.63
2018-11-26T09:42:36.415Z,96863.13
2018-11-26T09:45:06.107Z,96863.59
2018-11-26T09:47:34.731Z,96859.87
2018-11-26T09:50:03.876Z,96865.28
2018-11-26T09:52:32.283Z,96867.98
2018-11-26T09:55:00.746Z,96864.06
2018-11-26T09:57:29.216Z,96864.44
2018-11-26T09:59:58.712Z,96865.83
2018-11-26T10:02:27.018Z,96866.05
2018-11-26T10:04:55.302Z,96870.69
2018-11-26T10:07:23.848Z,96873.25
2018-11-26T10:09:52.395Z,96879.51
2018-11-26T10:12:20.662Z,96878.11
2018-11-26T10:14:48.949Z,96877.09
2018-11-26T10:17:17.342Z,96874.89
2018-11-26T10:19:45.583Z,96879.58
2018-11-26T10:22:14.219Z,96877.53
2018-11-26T10:25:21.091Z,96879.39
2018-11-26T10:27:49.452Z,96871.67
2018-11-26T10:30:18.880Z,96877.27
2018-11-26T10:32:47.290Z,96880.49
2018-11-26T10:35:16.005Z,96879.06
2018-11-26T10:37:44.258Z,96877.72
2018-11-26T10:40:13.783Z,96883.13
2018-11-26T10:42:42.237Z,96881.41
2018-11-26T10:45:11.543Z,96886.45
2018-11-26T10:47:40.301Z,96881.55
2018-11-26T10:50:09.504Z,96883.56
2018-11-26T10:52:37.682Z,96883.34
2018-11-26T10:55:07.747Z,96883.34
2018-11-26T10:57:36.250Z,96880.86
2018-11-26T11:00:04.929Z,96883.16
2018-11-26T11:02:38.878Z,96876.91
2018-11-26T11:05:07.323Z,96873.69
2018-11-26T11:07:35.797Z,96883.48
2018-11-26T11:10:04.686Z,96877.56
2018-11-26T11:12:33.006Z,96883.81
2018-11-26T11:15:02.329Z,96885.68
2018-11-26T11:17:30.635Z,96890.91
2018-11-26T11:19:58.878Z,96894.60
2018-11-26T11:23:05.797Z,96894.09
2018-11-26T11:25:34.699Z,96898.96
2018-11-26T11:28:03.029Z,96903.35
2018-11-26T11:30:31.441Z,96904.19
2018-11-26T11:35:28.370Z,96901.81
2018-11-26T11:39:27.761Z,96903.16
2018-11-26T11:41:56.538Z,96894.00
2018-11-26T11:44:24.759Z,96896.72
2018-11-26T11:46:53.096Z,96893.49
2018-11-26T11:49:21.194Z,96891.81
2018-11-26T11:51:52.734Z,96886.50
2018-11-26T11:54:21.292Z,96891.55
2018-11-26T11:56:49.324Z,96879.50
2018-11-26T11:59:17.591Z,96879.50
2018-11-26T12:01:46.733Z,96877.64
2018-11-26T12:04:15.029Z,96879.83
2018-11-26T12:06:43.045Z,96875.25
2018-11-26T12:09:11.674Z,96871.81
2018-11-26T12:11:39.976Z,96883.12
2018-11-26T12:14:08.339Z,96874.43
2018-11-26T12:16:36.420Z,96873.77
2018-11-26T12:19:04.561Z,96877.38
2018-11-26T12:21:32.584Z,96877.52
2018-11-26T12:24:00.644Z,96875.64
2018-11-26T12:26:28.753Z,96882.48
2018-11-26T12:28:58.156Z,96883.64
2018-11-26T12:31:26.307Z,96879.25
2018-11-26T12:36:14.483Z,96879.77
2018-11-26T12:38:42.535Z,96877.90
2018-11-26T12:41:11.177Z,96873.70
2018-11-26T12:43:39.458Z,96877.76
2018-11-26T12:46:07.569Z,96879.19
2018-11-26T12:48:35.759Z,96881.25
2018-11-26T12:51:04.297Z,96883.81
2018-11-26T12:53:33.083Z,96885.17
2018-11-26T12:56:01.151Z,96890.48
2018-11-26T12:58:30.348Z,96890.52
2018-11-26T13:03:44.745Z,96891.92
2018-11-26T13:06:13.343Z,96895.22
2018-11-26T13:08:41.877Z,96898.44
2018-11-26T13:11:11.069Z,96891.82
2018-11-26T13:14:05.074Z,96890.21
2018-11-26T13:16:33.502Z,96891.56
2018-11-26T13:19:02.378Z,96890.07
2018-11-26T13:21:31.023Z,96893.33
2018-11-26T13:26:21.387Z,96883.75
2018-11-26T13:28:50.353Z,96883.75
2018-11-26T13:31:18.766Z,96882.91
2018-11-26T13:33:47.210Z,96881.41
2018-11-26T13:40:28.959Z,96881.33
2018-11-26T13:42:58.394Z,96887.08
2018-11-26T13:46:20.290Z,96886.23
2018-11-26T13:48:49.130Z,96889.64
2018-11-26T13:51:18.175Z,96899.95
2018-11-26T13:53:46.867Z,96905.87
2018-11-26T13:57:22.637Z,96908.11
2018-11-26T13:59:51.442Z,96908.63
2018-11-26T14:02:20.527Z,96916.23
2018-11-26T14:06:29.587Z,96911.84
2018-11-26T14:08:58.449Z,96916.63
2018-11-26T14:11:27.742Z,96913.77
2018-11-26T14:13:56.439Z,96912.05
2018-11-26T14:16:24.903Z,96910.55
2018-11-26T14:18:55.340Z,96916.81
2018-11-26T14:21:25.216Z,96917.32
2018-11-26T14:23:53.907Z,96912.67
2018-11-26T14:26:22.540Z,96918.02
2018-11-26T14:28:52.256Z,96922.41
2018-11-26T14:31:21.382Z,96921.74
2018-11-26T14:33:49.977Z,96929.20
2018-11-26T14:36:19.495Z,96922.44
2018-11-26T14:38:48.614Z,96931.80
2018-11-26T14:41:17.916Z,96930.63
2018-11-26T14:43:47.270Z,96933.66
2018-11-26T14:46:15.788Z,96937.05
2018-11-26T14:48:44.221Z,96940.78
2018-11-26T14:51:13.184Z,96941.30
2018-11-26T14:53:42.155Z,96943.85
2018-11-26T14:56:10.870Z,96943.22
2018-11-26T14:58:39.328Z,96949.98
2018-11-26T15:01:11.382Z,96940.19
2018-11-26T15:03:40.156Z,96946.44
2018-11-26T15:06:09.010Z,96955.25
2018-11-26T15:08:37.664Z,96956.59
2018-11-26T15:11:06.470Z,96958.97
2018-11-26T15:13:35.776Z,96960.84
2018-11-26T15:16:04.595Z,96963.91
2018-11-26T15:18:33.056Z,96963.78
2018-11-26T15:21:02.108Z,96966.31
2018-11-26T15:23:30.611Z,96964.62
2018-11-26T15:25:59.068Z,96960.75
2018-11-26T15:28:27.504Z,96963.96
2018-11-26T15:30:56.191Z,96968.20
2018-11-26T15:33:24.956Z,96964.66
2018-11-26T15:35:53.707Z,96973.28
2018-11-26T15:38:22.415Z,96966.36
2018-11-26T15:40:51.241Z,96968.44
2018-11-26T15:43:19.728Z,96974.53
2018-11-26T15:45:48.299Z,96970.48
2018-11-26T15:48:17.024Z,96976.22
2018-11-26T15:50:45.764Z,96973.88
2018-11-26T15:53:14.803Z,96981.48
2018-11-26T15:55:43.271Z,96984.69
2018-11-26T15:58:12.771Z,96982.50
2018-11-26T16:00:42.162Z,96986.05
2018-11-26T16:03:12.567Z,96985.89
2018-11-26T16:05:42.101Z,96985.38
2018-11-26T16:10:15.127Z,96984.23
2018-11-26T16:12:44.491Z,96989.83
2018-11-26T16:15:17.778Z,96988.14
2018-11-26T16:17:50.454Z,96997.27
2018-11-26T16:20:21.221Z,97001.00
2018-11-26T16:22:52.032Z,96997.96
2018-11-26T16:25:36.269Z,96992.22
2018-11-26T16:31:26.216Z,96998.65
2018-11-26T16:33:55.736Z,97005.23
2018-11-26T16:38:49.086Z,97012.17
2018-11-26T16:43:50.295Z,97011.54
2018-11-26T16:46:18.787Z,97016.10
2018-11-26T16:48:47.615Z,97019.83
2018-11-26T16:51:16.496Z,97018.14
2018-11-26T16:53:45.167Z,97017.80
2018-11-26T16:56:13.599Z,97018.98
2018-11-26T16:58:42.082Z,97015.10
2018-11-26T17:01:10.598Z,97014.61
2018-11-26T17:03:39.710Z,97025.77
2018-11-26T17:06:08.353Z,97023.05
2018-11-26T17:08:36.937Z,97022.55
2018-11-26T17:11:06.148Z,97020.07
2018-11-26T17:13:34.806Z,97032.19
2018-11-26T17:16:03.428Z,97036.24
2018-11-26T17:18:32.755Z,97037.59
2018-11-26T17:21:01.682Z,97037.09
2018-11-26T17:23:30.663Z,97045.58
2018-11-26T17:25:59.949Z,97044.23
2018-11-26T17:28:31.963Z,97046.42
2018-11-26T17:31:01.481Z,97051.50
2018-11-26T17:33:30.276Z,97048.62
2018-11-26T17:35:59.138Z,97051.50
2018-11-26T17:38:27.924Z,97050.14
2018-11-26T17:40:56.627Z,97055.53
2018-11-26T17:43:25.340Z,97054.05
2018-11-26T17:45:54.106Z,97061.16
2018-11-26T17:48:23.197Z,97056.73
2018-11-26T17:50:51.830Z,97053.84
2018-11-26T17:53:21.687Z,97049.28
2018-11-26T17:55:54.268Z,97058.09
2018-11-26T17:58:26.325Z,97061.13
2018-11-26T18:00:57.103Z,97069.75
2018-11-26T18:03:25.640Z,97070.77
2018-11-26T18:05:55.683Z,97070.41
2018-11-26T18:08:24.369Z,97079.38
2018-11-26T18:10:53.182Z,97072.80
2018-11-26T18:13:22.834Z,97075.83
2018-11-26T18:15:51.398Z,97082.57
2018-11-26T18:18:20.203Z,97078.20
2018-11-26T18:20:51.204Z,97084.27
2018-11-26T18:23:42.175Z,97085.47
2018-11-26T18:26:10.626Z,97083.78
2018-11-26T18:28:39.552Z,97086.47
2018-11-26T18:31:08.096Z,97096.57
2018-11-26T18:33:36.687Z,97096.39
2018-11-26T18:36:05.242Z,97100.10
2018-11-26T18:38:34.207Z,97103.83
2018-11-26T18:42:21.829Z,97100.61
2018-11-26T18:44:51.406Z,97101.92
2018-11-26T18:47:21.305Z,97105.84
2018-11-26T18:49:50.406Z,97108.88
2018-11-26T18:52:19.141Z,97111.42
2018-11-26T18:55:02.239Z,97112.61
2018-11-26T18:57:33.017Z,97115.64
2018-11-26T19:00:04.200Z,97122.41
2018-11-26T19:02:35.197Z,97111.08
2018-11-26T19:06:34.431Z,97122.52
2018-11-26T19:09:02.937Z,97127.93
2018-11-26T19:11:33.959Z,97125.91
2018-11-26T19:14:04.660Z,97127.44
2018-11-26T19:16:35.152Z,97129.61
2018-11-26T19:19:04.740Z,97134.86
2018-11-26T19:21:32.838Z,97138.92
2018-11-26T19:24:01.759Z,97142.30
2018-11-26T19:26:31.120Z,97149.52
2018-11-26T19:30:40.091Z,97150.23
2018-11-26T19:33:09.598Z,97152.05
2018-11-26T19:37:44.534Z,97148.67
2018-11-26T19:40:17.680Z,97163.04
2018-11-26T19:42:48.223Z,97156.15
2018-11-26T19:46:25.197Z,97159.49
2018-11-26T19:48:53.840Z,97163.76
2018-11-26T19:52:19.019Z,97163.76
2018-11-26T19:54:48.140Z,97174.06
2018-11-26T19:57:16.912Z,97176.77
2018-11-26T20:00:29.466Z,97174.23
2018-11-26T20:03:02.715Z,97183.03
2018-11-26T20:05:35.490Z,97178.63
2018-11-26T20:08:04.670Z,97179.65
2018-11-26T20:10:34.175Z,97182.35
2018-11-26T20:13:04.084Z,97184.88
2018-11-26T20:15:34.254Z,97179.48
2018-11-26T20:18:02.876Z,97187.89
2018-11-26T20:20:31.492Z,97189.63
2018-11-26T20:23:00.847Z,97197.58
2018-11-26T20:25:29.575Z,97201.63
2018-11-26T20:27:58.693Z,97197.40
2018-11-26T20:30:27.811Z,97205.00
2018-11-26T20:32:56.553Z,97204.50
2018-11-26T20:35:25.868Z,97209.40
2018-11-26T20:37:54.632Z,97211.09
2018-11-26T20:43:19.694Z,97217.17
2018-11-26T20:45:48.934Z,97220.72
2018-11-26T20:48:19.608Z,97227.31
2018-11-26T20:50:49.329Z,97226.42
2018-11-26T20:53:18.218Z,97230.15
2018-11-26T20:55:47.268Z,97223.05
2018-11-26T20:58:16.502Z,97225.58
2018-11-26T21:00:46.946Z,97226.26
2018-11-26T21:03:17.300Z,97223.89
2018-11-26T21:05:46.066Z,97226.09
2018-11-26T21:08:15.204Z,97225.07
2018-11-26T21:10:44.118Z,97223.05
2018-11-26T21:13:16.886Z,97224.05
2018-11-26T21:15:41.802Z,97215.59
2018-11-26T21:18:11.380Z,97223.38
2018-11-26T21:20:40.885Z,97219.82
2018-11-26T21:23:12.058Z,97221.64
2018-11-26T21:28:36.347Z,97226.03
2018-11-26T21:31:05.036Z,97223.84
2018-11-26T21:33:34.922Z,97228.06
2018-11-26T21:36:04.969Z,97227.89
2018-11-26T21:38:34.452Z,97227.38
2018-11-26T21:41:03.341Z,97226.87
2018-11-26T21:43:32.089Z,97234.99
2018-11-26T21:46:01.318Z,97237.87
2018-11-26T21:48:30.206Z,97240.73
2018-11-26T21:50:59.205Z,97241.46
2018-11-26T21:53:28.392Z,97239.27
2018-11-26T21:55:57.703Z,97237.41
2018-11-26T21:58:26.631Z,97241.63
2018-11-26T22:00:56.178Z,97244.51
2018-11-26T22:03:30.390Z,97247.72
2018-11-26T22:05:54.308Z,97251.28
2018-11-26T22:08:23.499Z,97255.67
2018-11-26T22:10:52.238Z,97255.50
2018-11-26T22:13:23.262Z,97255.00
2018-11-26T22:17:40.354Z,97260.28
2018-11-26T22:20:10.835Z,97268.73
2018-11-26T22:22:40.179Z,97268.56
2018-11-26T22:25:09.611Z,97266.37
2018-11-26T22:27:38.840Z,97276.55
2018-11-26T22:30:41.925Z,97276.55
2018-11-26T22:33:10.657Z,97277.23
2018-11-26T22:35:39.343Z,97273.84
2018-11-26T22:38:08.098Z,97277.56
2018-11-26T22:40:36.714Z,97277.09
2018-11-26T22:43:05.567Z,97279.13
2018-11-26T22:45:34.957Z,97283.17
2018-11-26T22:48:10.216Z,97285.00
2018-11-26T22:50:40.266Z,97286.52
2018-11-26T22:53:09.336Z,97286.72
2018-11-26T22:55:38.250Z,97282.00
2018-11-26T22:58:08.058Z,97285.20
2018-11-26T23:00:43.443Z,97282.33
2018-11-26T23:03:12.943Z,97284.56
2018-11-26T23:05:42.097Z,97284.36
2018-11-26T23:08:10.655Z,97285.91
2018-11-26T23:10:39.269Z,97287.27
2018-11-26T23:16:02.223Z,97285.73
2018-11-26T23:18:30.887Z,97288.10
2018-11-26T23:20:59.987Z,97282.05
2018-11-26T23:24:22.152Z,97291.68
2018-11-26T23:26:49.907Z,97291.34
2018-11-26T23:29:18.643Z,97294.89
2018-11-26T23:31:47.234Z,97292.86
2018-11-26T23:34:15.770Z,97294.72
2018-11-26T23:36:44.540Z,97295.55
2018-11-26T23:39:13.286Z,97298.13
2018-11-26T23:41:42.646Z,97303.02
2018-11-26T23:44:11.467Z,97299.47
2018-11-26T23:46:40.355Z,97307.73
2018-11-26T23:49:08.939Z,97311.45
2018-11-26T23:53:33.614Z,97319.41
2018-11-26T23:56:02.619Z,97327.69
2018-11-26T23:58:31.439Z,97324.98
